Time;durP1;ratioP1;P1;durP2;ratioP2;P2;SDS_P1;SDS_P2;PMS_P1;PMS_P2;Temp;Humidity;BMP_temperature;BMP_pressure;BME280_temperature;BME280_humidity;BME280_pressure;Samples;Min_cycle;Max_cycle;Signal;HPM_P1;HPM_P2
2022/02/27 00:01:55;;;;;;;18.17;9.78;;;;;;;2.06;70.79;103002.16;1583896;89;21028;-76
2022/02/27 00:04:25;;;;;;;18.23;10.20;;;;;;;2.06;70.75;103002.16;1585324;89;21067;-76
2022/02/27 00:06:51;;;;;;;18.60;10.15;;;;;;;2.05;70.79;102999.53;1586258;89;20940;-76
2022/02/27 00:09:18;;;;;;;24.37;11.95;;;;;;;2.03;70.81;103004.55;1586440;90;20909;-76
2022/02/27 00:11:44;;;;;;;20.40;11.63;;;;;;;2.03;70.88;103003.27;1586822;89;20941;-76
2022/02/27 00:14:10;;;;;;;14.70;9.35;;;;;;;1.99;70.83;103003.48;1593274;89;20984;-76
2022/02/27 00:16:38;;;;;;;21.15;11.48;;;;;;;1.97;70.95;103004.19;1609051;88;21064;-76
2022/02/27 00:19:05;;;;;;;26.17;12.90;;;;;;;1.94;70.96;103007.45;1607088;89;20957;-76
2022/02/27 00:21:31;;;;;;;20.85;11.93;;;;;;;1.93;71.00;103005.69;1591259;86;21131;-76
2022/02/27 00:23:57;;;;;;;22.87;13.98;;;;;;;1.90;71.05;103005.52;1592011;89;20927;-76
2022/02/27 00:26:23;;;;;;;27.27;13.85;;;;;;;1.88;71.06;103000.72;1609391;89;21069;-76
2022/02/27 00:28:49;;;;;;;24.03;12.70;;;;;;;1.85;71.14;103003.09;1608920;88;21045;-76
2022/02/27 00:31:15;;;;;;;26.73;13.13;;;;;;;1.84;71.15;103003.00;1586670;88;21145;-76
2022/02/27 00:33:45;;;;;;;19.25;12.23;;;;;;;1.80;71.16;102993.41;1583771;89;21760;-76
2022/02/27 00:36:11;;;;;;;22.70;13.15;;;;;;;1.81;71.17;102997.72;1585160;89;21136;-76
2022/02/27 00:38:37;;;;;;;22.10;12.57;;;;;;;1.74;70.95;102993.94;1589934;89;20909;-76
2022/02/27 00:41:03;;;;;;;21.82;13.48;;;;;;;1.74;70.95;102993.94;1584142;90;21536;-76
2022/02/27 00:43:29;;;;;;;28.32;14.13;;;;;;;1.72;71.29;102998.06;1584185;90;21080;-76
2022/02/27 00:45:55;;;;;;;22.52;14.38;;;;;;;1.70;71.32;102993.66;1587090;89;21043;-76
2022/02/27 00:48:22;;;;;;;28.50;13.18;;;;;;;1.65;71.25;102995.95;1595109;89;22207;-76
2022/02/27 00:50:48;;;;;;;25.48;14.80;;;;;;;1.61;71.27;102996.16;1584066;90;21019;-76
2022/02/27 00:53:14;;;;;;;29.37;16.32;;;;;;;1.57;71.34;102994.22;1584154;89;21076;-76
2022/02/27 00:55:41;;;;;;;;;;;;;;;1.53;71.38;102996.53;1586277;89;21067;-76
2022/02/27 00:58:07;;;;;;;24.32;14.25;;;;;;;1.50;71.77;102997.62;1611282;87;20121;-76
2022/02/27 01:00:33;;;;;;;24.65;15.25;;;;;;;1.47;71.49;102992.34;1668073;85;21033;-76
2022/02/27 01:02:59;;;;;;;23.52;14.30;;;;;;;1.42;71.44;102997.57;1675957;84;21077;-76
2022/02/27 01:05:25;;;;;;;29.82;15.90;;;;;;;1.39;71.40;102999.94;1673478;84;20990;-76
2022/02/27 01:07:51;;;;;;;25.60;15.95;;;;;;;1.34;71.46;102998.38;1672680;84;21029;-76
2022/02/27 01:10:21;;;;;;;26.20;14.93;;;;;;;1.31;71.50;103005.45;1673212;84;21061;-76
2022/02/27 01:12:47;;;;;;;31.90;15.60;;;;;;;1.29;71.56;102993.41;1673730;84;21604;-76
2022/02/27 01:15:13;;;;;;;29.63;15.63;;;;;;;1.29;71.67;102998.50;1670712;85;21739;-76
2022/02/27 01:17:39;;;;;;;23.15;13.90;;;;;;;1.30;71.64;103002.81;1661236;85;21165;-76
2022/02/27 01:20:07;;;;;;;18.87;13.28;;;;;;;1.30;71.62;103011.34;1645907;85;21037;-76
2022/02/27 01:22:34;;;;;;;23.83;14.10;;;;;;;1.28;71.70;103005.66;1686001;84;21044;-76
2022/02/27 01:25:00;;;;;;;28.65;14.68;;;;;;;1.28;71.74;103006.94;1668938;84;20950;-76
2022/02/27 01:27:26;;;;;;;22.65;13.98;;;;;;;1.27;71.78;103012.43;1645918;85;20993;-76
2022/02/27 01:29:52;;;;;;;20.90;12.98;;;;;;;1.29;71.80;103013.40;1646172;85;21081;-76
2022/02/27 01:32:18;;;;;;;25.10;13.60;;;;;;;1.30;71.90;103017.71;1649068;85;21056;-75
2022/02/27 01:34:46;;;;;;;26.95;17.60;;;;;;;1.32;71.81;103021.62;1657865;85;22117;-75
2022/02/27 01:37:12;;;;;;;27.10;14.47;;;;;;;1.33;71.94;103026.81;1659958;85;21504;-75
2022/02/27 01:39:38;;;;;;;24.02;13.72;;;;;;;1.35;71.90;103026.91;1685344;84;21569;-75
2022/02/27 01:42:04;;;;;;;27.50;15.32;;;;;;;1.35;71.87;103028.58;1685086;84;20934;-75
2022/02/27 01:44:31;;;;;;;23.50;13.83;;;;;;;1.37;72.02;103027.00;1667696;85;21535;-75
2022/02/27 01:47:01;;;;;;;24.35;14.75;;;;;;;1.38;71.99;103033.47;1675385;85;20911;-75
2022/02/27 01:49:28;;;;;;;24.23;14.20;;;;;;;1.40;72.08;103033.16;1682861;85;22284;-75
2022/02/27 01:51:57;;;;;;;30.40;16.20;;;;;;;1.41;71.98;103039.14;1684838;84;22237;-76
2022/02/27 01:54:23;;;;;;;29.57;16.15;;;;;;;1.40;71.97;103039.93;1657191;85;26588;-76
2022/02/27 01:56:50;;;;;;;27.58;15.95;;;;;;;1.39;71.97;103035.63;1674997;85;21520;-76
2022/02/27 01:59:17;;;;;;;27.00;16.40;;;;;;;1.41;72.17;103033.65;1685281;83;24424;-76
2022/02/27 02:01:43;;;;;;;21.30;14.13;;;;;;;1.44;72.11;103036.78;1687454;83;21473;-76
2022/02/27 02:04:10;;;;;;;20.75;14.55;;;;;;;1.44;72.12;103040.20;1686424;83;21357;-76
2022/02/27 02:06:37;;;;;;;29.52;16.00;;;;;;;1.44;72.07;103034.23;1687382;83;21744;-76
2022/02/27 02:09:05;;;;;;;21.93;15.63;;;;;;;1.45;72.17;103034.72;1687370;84;20874;-76
2022/02/27 02:11:34;;;;;;;25.32;16.37;;;;;;;1.44;72.17;103030.41;1687599;84;21791;-76
2022/02/27 02:14:02;;;;;;;22.95;16.12;;;;;;;1.45;72.31;103033.05;1664419;85;20910;-76
2022/02/27 02:16:49;;;;;;;21.80;15.90;;;;;;;1.47;72.29;103034.02;1674820;85;20927;-76
2022/02/27 02:19:17;;;;;;;26.80;16.37;;;;;;;1.47;72.35;103034.02;1687203;84;20958;-76
2022/02/27 02:21:47;;;;;;;28.20;16.42;;;;;;;1.46;72.43;103037.75;1662560;84;21327;-76
2022/02/27 02:24:15;;;;;;;25.55;16.87;;;;;;;1.43;72.32;103040.12;1659105;85;21485;-76
2022/02/27 02:26:43;;;;;;;24.02;16.75;;;;;;;1.41;72.32;103037.47;1657355;85;21053;-76
2022/02/27 02:29:13;;;;;;;24.12;16.45;;;;;;;1.41;72.46;103037.47;1673293;85;21518;-76
2022/02/27 02:31:39;;;;;;;24.43;16.27;;;;;;;1.43;72.49;103033.34;1685365;84;21494;-76
2022/02/27 02:34:07;;;;;;;;;;;;;;;1.42;72.46;103035.41;1677847;84;20895;-76
2022/02/27 02:36:34;;;;;;;23.12;16.67;;;;;;;1.42;72.65;103031.98;1666617;85;20423;-76
2022/02/27 02:39:06;;;;;;;26.93;17.12;;;;;;;1.40;72.40;103041.20;1648040;85;21387;-76
2022/02/27 02:41:32;;;;;;;22.13;16.00;;;;;;;1.39;72.50;103037.77;1647915;85;20922;-76
2022/02/27 02:43:58;;;;;;;27.50;15.55;;;;;;;1.41;72.50;103036.59;1648248;85;21565;-76
2022/02/27 02:46:27;;;;;;;21.95;15.88;;;;;;;1.41;72.55;103033.65;1661104;85;20899;-76
2022/02/27 02:48:53;;;;;;;22.45;15.78;;;;;;;1.43;72.62;103041.00;1648092;85;21442;-76
2022/02/27 02:51:19;;;;;;;26.85;16.32;;;;;;;1.45;72.65;103039.81;1646729;85;21133;-76
2022/02/27 02:53:46;;;;;;;27.13;17.75;;;;;;;1.45;72.69;103035.98;1652150;85;21064;-76
2022/02/27 02:56:13;;;;;;;24.77;17.23;;;;;;;1.45;72.73;103027.95;1645836;85;21425;-76
2022/02/27 02:58:41;;;;;;;21.52;16.73;;;;;;;1.47;72.80;103039.52;1651948;85;21537;-76
2022/02/27 03:01:12;;;;;;;26.90;19.02;;;;;;;1.49;72.81;103040.48;1673637;84;22078;-76
2022/02/27 03:03:43;;;;;;;24.80;17.27;;;;;;;1.54;72.89;103042.91;1671203;84;21038;-76
2022/02/27 03:06:11;;;;;;;23.00;15.70;;;;;;;1.57;72.92;103040.52;1661522;84;21034;-76
2022/02/27 03:08:44;;;;;;;20.80;15.28;;;;;;;1.61;72.92;103040.78;1673357;84;21584;-76
2022/02/27 03:11:11;;;;;;;17.00;13.83;;;;;;;1.63;72.88;103048.13;1665628;85;21462;-76
2022/02/27 03:13:37;;;;;;;17.90;13.95;;;;;;;1.62;72.83;103051.47;1646327;85;22250;-76
2022/02/27 03:16:04;;;;;;;;;;;;;;;1.52;72.84;103027.92;1656793;85;21427;-76
2022/02/27 03:18:30;;;;;;;;;;;;;;;1.60;73.08;103054.72;1648418;85;20192;-76
2022/02/27 03:21:04;;;;;;;18.57;11.73;;;;;;;1.58;73.14;103053.75;1645937;87;20111;-76
2022/02/27 03:23:33;;;;;;;14.53;12.80;;;;;;;1.55;72.93;103053.20;1646189;85;21243;-76
2022/02/27 03:25:59;;;;;;;16.17;12.78;;;;;;;1.54;72.95;103056.94;1647714;85;21061;-76
2022/02/27 03:28:25;;;;;;;;;;;;;;;1.51;72.87;103052.53;1642652;86;21081;-76
2022/02/27 03:30:52;;;;;;;18.02;12.13;;;;;;;1.51;73.35;103061.85;1640057;87;20224;-76
2022/02/27 03:33:18;;;;;;;;;;;;;;;1.47;73.05;103056.97;1651886;85;21045;-76
2022/02/27 03:35:44;;;;;;;16.32;12.23;;;;;;;1.45;73.10;103059.81;1663351;85;23818;-76
2022/02/27 03:38:11;;;;;;;17.40;13.28;;;;;;;1.41;72.99;103059.14;1662315;85;21075;-76
2022/02/27 03:40:37;;;;;;;17.90;12.00;;;;;;;1.40;73.08;103058.66;1652239;85;20957;-76
2022/02/27 03:43:10;;;;;;;16.20;12.53;;;;;;;1.39;73.11;103064.94;1650683;85;21560;-76
2022/02/27 03:45:36;;;;;;;17.12;12.33;;;;;;;1.39;73.15;103068.36;1653414;85;21057;-76
2022/02/27 03:48:02;;;;;;;14.70;12.30;;;;;;;1.40;73.18;103071.41;1677480;84;21058;-76
2022/02/27 03:50:28;;;;;;;16.02;13.10;;;;;;;1.42;73.17;103072.77;1675785;84;21068;-76
2022/02/27 03:52:54;;;;;;;16.80;11.03;;;;;;;1.43;73.23;103076.69;1658850;85;21065;-76
2022/02/27 03:55:20;;;;;;;12.43;10.57;;;;;;;1.45;73.34;103073.84;1677605;84;21750;-76
2022/02/27 03:57:47;;;;;;;8.40;7.12;;;;;;;1.49;73.38;103070.69;1677653;84;21100;-76
2022/02/27 04:00:17;;;;;;;9.83;7.60;;;;;;;1.50;73.28;103074.99;1670211;85;21045;-76
2022/02/27 04:02:49;;;;;;;7.55;6.50;;;;;;;1.50;73.23;103071.56;1652258;85;20926;-76
2022/02/27 04:05:16;;;;;;;14.58;6.97;;;;;;;1.49;73.31;103065.58;1651505;86;20903;-76
2022/02/27 04:07:42;;;;;;;10.32;6.72;;;;;;;1.49;73.30;103073.63;1666422;85;20914;-76
2022/02/27 04:10:09;;;;;;;;;;;;;;;1.47;73.21;103069.70;1671807;85;20946;-76
2022/02/27 04:12:35;;;;;;;10.72;5.65;;;;;;;1.47;73.55;103076.48;1652253;85;20108;-76
2022/02/27 04:15:04;;;;;;;8.38;4.85;;;;;;;1.46;73.31;103078.14;1661600;84;20882;-76
2022/02/27 04:17:35;;;;;;;6.83;6.22;;;;;;;1.46;73.41;103077.27;1676246;84;20914;-76
2022/02/27 04:19:59;;;;;;;7.70;5.20;;;;;;;1.46;73.44;103078.54;1664211;84;20895;-76
2022/02/27 04:22:28;;;;;;;9.43;6.00;;;;;;;1.48;73.51;103088.44;1652441;85;20910;-77
2022/02/27 04:24:55;;;;;;;6.70;5.95;;;;;;;1.51;73.44;103088.23;1664490;85;20915;-77
2022/02/27 04:27:20;;;;;;;;;;;;;;;1.50;73.44;103086.47;1672020;85;21387;-77
2022/02/27 04:29:46;;;;;;;10.48;7.10;;;;;;;1.50;73.49;103085.19;1652517;85;20215;-76
2022/02/27 04:32:13;;;;;;;11.57;7.15;;;;;;;1.50;73.43;103086.86;1655692;85;20926;-76
2022/02/27 04:34:39;;;;;;;7.95;7.05;;;;;;;1.48;73.47;103088.44;1651189;84;20883;-76
2022/02/27 04:37:05;;;;;;;9.23;7.40;;;;;;;1.48;73.46;103084.61;1648073;87;21383;-76
2022/02/27 04:39:31;;;;;;;11.75;7.47;;;;;;;1.49;73.58;103082.16;1654324;85;20942;-76
2022/02/27 04:41:57;;;;;;;8.73;7.45;;;;;;;1.52;73.62;103082.73;1651360;85;20939;-76
2022/02/27 04:44:23;;;;;;;9.63;7.12;;;;;;;1.55;73.67;103075.27;1648347;85;20883;-76
2022/02/27 04:46:49;;;;;;;9.18;7.35;;;;;;;1.58;73.65;103079.25;1661210;85;21021;-76
2022/02/27 04:49:18;;;;;;;6.70;6.00;;;;;;;1.58;73.59;103078.85;1651901;85;21049;-76
2022/02/27 04:51:44;;;;;;;7.15;6.45;;;;;;;1.60;73.66;103079.83;1646176;85;21042;-76
2022/02/27 04:54:11;;;;;;;10.78;7.12;;;;;;;1.62;73.67;103082.47;1648798;85;21505;-76
2022/02/27 04:56:37;;;;;;;7.10;6.40;;;;;;;1.64;73.68;103077.06;1646050;84;21054;-76
2022/02/27 04:59:03;;;;;;;14.23;7.12;;;;;;;1.63;73.60;103076.19;1646138;87;21061;-76
2022/02/27 05:01:29;;;;;;;11.08;6.90;;;;;;;1.62;73.71;103080.80;1646758;85;21112;-76
2022/02/27 05:04:02;;;;;;;8.88;6.42;;;;;;;1.62;73.67;103076.97;1659994;85;21108;-76
2022/02/27 05:06:27;;;;;;;10.03;7.25;;;;;;;1.62;73.73;103078.64;1673326;85;21565;-76
2022/02/27 05:08:54;;;;;;;7.70;6.12;;;;;;;1.63;73.73;103083.83;1661579;84;20978;-76
2022/02/27 05:11:20;;;;;;;7.75;6.25;;;;;;;1.64;73.74;103088.15;1654100;85;20894;-76
2022/02/27 05:13:46;;;;;;;8.17;6.63;;;;;;;1.65;73.72;103092.45;1640180;87;20895;-76
2022/02/27 05:16:12;;;;;;;7.72;6.25;;;;;;;1.65;73.78;103095.41;1654069;85;21786;-76
2022/02/27 05:18:39;;;;;;;8.20;6.12;;;;;;;1.67;73.88;103097.65;1645787;85;21105;-76
2022/02/27 05:21:05;;;;;;;11.80;7.90;;;;;;;1.72;73.87;103100.48;1646381;85;20875;-76
2022/02/27 05:23:31;;;;;;;15.73;7.97;;;;;;;1.74;73.85;103104.00;1650231;85;20880;-76
2022/02/27 05:25:58;;;;;;;10.23;8.95;;;;;;;1.75;73.85;103106.64;1666805;85;21696;-76
2022/02/27 05:28:26;;;;;;;14.45;9.30;;;;;;;1.70;73.72;103105.48;1667220;85;21056;-77
2022/02/27 05:30:54;;;;;;;9.40;8.48;;;;;;;1.65;73.68;103109.03;1640430;86;21069;-76
2022/02/27 05:33:21;;;;;;;11.48;8.35;;;;;;;1.62;73.72;103114.34;1646064;85;21090;-76
2022/02/27 05:35:47;;;;;;;9.70;8.35;;;;;;;1.57;73.72;103115.34;1645046;85;21101;-76
2022/02/27 05:38:13;;;;;;;9.70;8.33;;;;;;;1.56;73.79;103117.40;1645393;85;20986;-76
2022/02/27 05:40:39;;;;;;;12.63;9.00;;;;;;;1.54;73.81;103113.03;1656420;85;20962;-76
2022/02/27 05:43:06;;;;;;;10.25;9.18;;;;;;;1.52;73.79;103120.59;1673375;85;20910;-76
2022/02/27 05:45:32;;;;;;;10.05;9.03;;;;;;;1.51;73.84;103130.30;1672028;84;21513;-76
2022/02/27 05:47:58;;;;;;;11.50;9.00;;;;;;;1.51;73.83;103135.39;1656272;84;21001;-76
2022/02/27 05:50:24;;;;;;;12.18;8.48;;;;;;;1.50;73.87;103136.58;1646101;85;20946;-77
2022/02/27 05:52:50;;;;;;;11.15;9.88;;;;;;;1.48;73.83;103145.80;1645776;85;21533;-76
2022/02/27 05:55:16;;;;;;;13.10;9.33;;;;;;;1.43;73.85;103145.52;1656579;84;21121;-76
2022/02/27 05:57:42;;;;;;;10.48;9.38;;;;;;;1.42;73.90;103145.42;1669034;85;21006;-76
2022/02/27 06:00:10;;;;;;;10.53;9.43;;;;;;;1.38;73.89;103139.25;1673123;85;20899;-76
2022/02/27 06:02:36;;;;;;;13.60;10.48;;;;;;;1.40;73.98;103135.13;1675382;85;21030;-76
2022/02/27 06:05:02;;;;;;;19.65;11.10;;;;;;;1.42;73.96;103145.42;1654724;84;20907;-76
2022/02/27 06:07:31;;;;;;;13.30;10.53;;;;;;;1.44;74.02;103147.67;1674194;85;20934;-76
2022/02/27 06:09:57;;;;;;;13.25;10.32;;;;;;;1.45;74.03;103153.26;1675249;84;20864;-76
2022/02/27 06:12:23;;;;;;;13.70;9.85;;;;;;;1.46;74.08;103153.35;1673611;84;20902;-76
2022/02/27 06:14:52;;;;;;;10.20;9.10;;;;;;;1.48;74.07;103163.25;1663090;85;20954;-76
2022/02/27 06:17:18;;;;;;;8.30;7.50;;;;;;;1.51;74.07;103162.56;1671149;85;21638;-75
2022/02/27 06:19:44;;;;;;;12.27;9.60;;;;;;;1.39;74.02;103148.66;1668412;84;21288;-76
2022/02/27 06:22:10;;;;;;;15.93;10.73;;;;;;;1.51;74.10;103173.64;1668323;84;20887;-76
2022/02/27 06:24:36;;;;;;;8.50;7.63;;;;;;;1.49;73.94;103166.69;1593379;88;20940;-76
2022/02/27 06:27:03;;;;;;;13.98;11.55;;;;;;;1.47;74.09;103172.96;1603031;89;20976;-76
2022/02/27 06:29:28;;;;;;;14.80;11.08;;;;;;;1.47;74.10;103172.96;1612106;87;26732;-76
2022/02/27 06:31:55;;;;;;;14.20;10.68;;;;;;;1.51;74.15;103168.94;1622659;87;20941;-76
2022/02/27 06:34:20;;;;;;;16.05;11.75;;;;;;;1.53;74.16;103173.73;1623876;87;21646;-76
2022/02/27 06:36:46;;;;;;;13.80;10.88;;;;;;;1.56;74.17;103181.15;1605374;87;20877;-76
2022/02/27 06:39:13;;;;;;;16.15;11.63;;;;;;;1.58;74.13;103179.97;1623433;87;21542;-76
2022/02/27 06:41:39;;;;;;;16.57;13.13;;;;;;;1.59;74.20;103180.06;1627650;86;20952;-76
2022/02/27 06:44:05;;;;;;;17.77;12.53;;;;;;;1.61;74.14;103192.52;1627555;87;21658;-76
2022/02/27 06:46:31;;;;;;;17.67;11.93;;;;;;;1.60;74.08;103192.03;1623488;87;21079;-76
2022/02/27 06:48:58;;;;;;;;;;;;;;;1.61;74.08;103192.91;1622847;87;21020;-76
2022/02/27 06:51:25;;;;;;;14.87;11.65;;;;;;;1.59;74.17;103191.54;1649971;85;20232;-76
2022/02/27 06:53:51;;;;;;;20.65;10.93;;;;;;;1.60;74.04;103189.87;1689409;83;21045;-76
2022/02/27 06:56:18;;;;;;;17.00;10.25;;;;;;;1.59;74.06;103189.38;1668841;85;21080;-76
2022/02/27 06:58:44;;;;;;;12.78;10.45;;;;;;;1.59;74.00;103190.66;1668943;84;21144;-77
2022/02/27 07:01:10;;;;;;;14.30;10.68;;;;;;;1.58;74.11;103191.05;1686310;84;21113;-77
2022/02/27 07:03:36;;;;;;;18.95;10.70;;;;;;;1.61;74.06;103196.34;1690933;84;21042;-77
2022/02/27 07:06:02;;;;;;;11.57;10.00;;;;;;;1.64;74.11;103205.84;1688152;84;21707;-77
2022/02/27 07:08:28;;;;;;;15.53;10.85;;;;;;;1.64;74.08;103204.57;1685223;84;21110;-77
2022/02/27 07:10:54;;;;;;;12.58;10.72;;;;;;;1.66;74.07;103199.17;1682596;83;21075;-77
2022/02/27 07:13:20;;;;;;;14.07;9.95;;;;;;;1.70;74.17;103199.85;1672321;84;25385;-77
2022/02/27 07:15:47;;;;;;;11.93;9.85;;;;;;;1.74;74.05;103206.91;1662903;85;20958;-77
2022/02/27 07:18:13;;;;;;;;;;;;;;;1.73;74.05;103210.23;1658394;85;20988;-77
2022/02/27 07:20:42;;;;;;;10.48;9.40;;;;;;;1.77;74.22;103207.09;1639430;86;21003;-77
2022/02/27 07:23:08;;;;;;;11.57;8.70;;;;;;;1.80;74.14;103207.28;1634293;86;21443;-77
2022/02/27 07:25:34;;;;;;;13.95;8.75;;;;;;;1.84;74.09;103207.08;1610583;86;21070;-75
2022/02/27 07:28:00;;;;;;;10.30;8.53;;;;;;;1.94;74.25;103212.83;1666483;83;21129;-74
2022/02/27 07:30:27;;;;;;;11.28;8.50;;;;;;;2.03;74.12;103210.35;1668861;84;21014;-74
2022/02/27 07:32:53;;;;;;;14.07;8.45;;;;;;;2.03;74.05;103209.08;1676558;84;20933;-74
2022/02/27 07:35:19;;;;;;;11.65;7.95;;;;;;;2.08;74.12;103208.95;1672488;84;20985;-74
2022/02/27 07:37:46;;;;;;;10.80;7.50;;;;;;;2.11;74.16;103204.89;1674980;84;21061;-73
2022/02/27 07:40:13;;;;;;;11.80;6.97;;;;;;;2.18;74.19;103207.02;1669741;84;21005;-74
2022/02/27 07:42:39;;;;;;;12.37;6.85;;;;;;;2.49;74.34;103207.55;1672518;84;21121;-74
2022/02/27 07:45:10;;;;;;;9.63;7.30;;;;;;;2.70;74.11;103206.22;1674954;85;21384;-73
2022/02/27 07:47:36;;;;;;;9.75;6.28;;;;;;;2.77;74.06;103203.22;1674988;85;20954;-73
2022/02/27 07:50:02;;;;;;;;;;;;;;;2.83;74.21;103198.47;1675431;85;20910;-74
2022/02/27 07:52:28;;;;;;;11.08;6.67;;;;;;;2.98;74.12;103203.56;1669184;84;20712;-74
2022/02/27 07:54:54;;;;;;;9.20;7.03;;;;;;;2.98;74.04;103198.45;1674065;85;21487;-74
2022/02/27 07:57:20;;;;;;;8.40;5.70;;;;;;;3.02;74.07;103198.23;1660859;84;20898;-73
2022/02/27 07:59:46;;;;;;;10.85;5.72;;;;;;;3.03;74.14;103189.77;1659252;85;21361;-73
2022/02/27 08:02:12;;;;;;;9.83;5.80;;;;;;;3.14;74.28;103182.27;1653243;85;21583;-73
2022/02/27 08:04:38;;;;;;;9.60;6.33;;;;;;;3.22;74.27;103186.13;1673263;85;20883;-74
2022/02/27 08:07:05;;;;;;;9.48;7.37;;;;;;;3.40;74.37;103188.42;1672545;85;20934;-74
2022/02/27 08:09:31;;;;;;;8.47;6.60;;;;;;;3.60;74.34;103183.98;1678727;85;21242;-74
2022/02/27 08:11:57;;;;;;;6.63;5.37;;;;;;;3.79;74.28;103179.81;1665149;85;21600;-74
2022/02/27 08:14:23;;;;;;;11.08;6.58;;;;;;;3.84;74.12;103178.38;1666193;85;20942;-74
2022/02/27 08:16:49;;;;;;;8.95;6.10;;;;;;;3.84;74.13;103186.05;1679187;85;20930;-74
2022/02/27 08:19:17;;;;;;;9.80;7.20;;;;;;;3.90;74.25;103181.27;1679358;85;20950;-74
2022/02/27 08:21:43;;;;;;;11.65;6.55;;;;;;;4.04;74.34;103182.86;1673756;85;20910;-74
2022/02/27 08:24:09;;;;;;;7.37;5.97;;;;;;;4.14;74.23;103179.09;1673102;85;20915;-74
2022/02/27 08:26:36;;;;;;;9.33;6.17;;;;;;;4.16;74.14;103186.02;1677627;85;20875;-76
2022/02/27 08:29:05;;;;;;;9.30;6.28;;;;;;;4.22;74.24;103185.45;1678000;84;21290;-76
2022/02/27 08:31:31;;;;;;;13.75;7.25;;;;;;;4.28;74.22;103188.33;1670823;85;20914;-76
2022/02/27 08:34:00;;;;;;;13.48;7.30;;;;;;;4.39;74.26;103189.76;1667325;85;20992;-76
2022/02/27 08:36:26;;;;;;;7.70;5.90;;;;;;;4.50;74.26;103185.17;1600400;87;20921;-76
2022/02/27 08:38:52;;;;;;;9.63;6.22;;;;;;;4.51;74.06;103191.66;1603093;89;20957;-76
2022/02/27 08:41:19;;;;;;;10.65;6.92;;;;;;;4.48;74.15;103190.22;1611021;88;20921;-76
2022/02/27 08:43:45;;;;;;;;;;;;;;;4.51;74.23;103193.34;1608746;87;20946;-75
2022/02/27 08:46:11;;;;;;;7.22;4.55;;;;;;;4.50;73.98;103190.30;1627856;87;20236;-76
2022/02/27 08:48:37;;;;;;;9.87;5.07;;;;;;;4.45;74.05;103188.78;1671630;85;20882;-75
2022/02/27 08:51:04;;;;;;;8.28;4.25;;;;;;;4.39;74.10;103192.72;1673617;84;20973;-75
2022/02/27 08:53:30;;;;;;;8.57;4.40;;;;;;;4.26;73.95;103186.97;1673096;84;21084;-76
2022/02/27 08:55:56;;;;;;;6.03;4.87;;;;;;;4.09;74.07;103160.05;1668091;85;21523;-76
2022/02/27 08:58:22;;;;;;;7.58;5.28;;;;;;;4.16;74.10;103182.62;1667593;85;21034;-75
2022/02/27 09:00:48;;;;;;;6.50;4.90;;;;;;;4.10;74.08;103176.78;1669879;85;21507;-76
2022/02/27 09:03:16;;;;;;;9.10;5.53;;;;;;;4.08;74.09;103175.82;1661438;85;21058;-76
2022/02/27 09:05:43;;;;;;;7.00;5.08;;;;;;;4.00;74.01;103174.55;1670344;85;23043;-75
2022/02/27 09:08:09;;;;;;;7.92;5.25;;;;;;;3.92;73.97;103179.66;1663659;85;21081;-76
2022/02/27 09:10:36;;;;;;;7.05;5.80;;;;;;;3.84;73.96;103182.22;1672023;84;21096;-76
2022/02/27 09:13:02;;;;;;;6.75;5.37;;;;;;;3.74;73.83;103185.97;1672888;85;21101;-76
2022/02/27 09:15:28;;;;;;;12.28;5.78;;;;;;;3.58;73.75;103184.30;1673653;85;21090;-75
2022/02/27 09:17:55;;;;;;;8.98;5.50;;;;;;;3.52;73.87;103179.25;1671649;85;21339;-75
2022/02/27 09:20:22;;;;;;;10.58;5.70;;;;;;;3.52;73.99;103182.69;1665207;84;21125;-75
2022/02/27 09:22:51;;;;;;;8.60;6.10;;;;;;;3.58;74.01;103187.26;1661129;84;21010;-76
2022/02/27 09:25:17;;;;;;;10.25;6.53;;;;;;;3.59;73.93;103194.13;1671076;85;21053;-76
2022/02/27 09:27:44;;;;;;;10.00;7.10;;;;;;;3.55;73.79;103194.37;1670936;85;20964;-76
2022/02/27 09:30:12;;;;;;;13.10;6.92;;;;;;;3.52;73.75;103194.60;1662810;85;21596;-76
2022/02/27 09:32:41;;;;;;;8.45;6.45;;;;;;;3.48;73.75;103198.67;1666233;84;20946;-76
2022/02/27 09:35:08;;;;;;;10.80;7.30;;;;;;;3.43;73.73;103198.81;1668889;84;20933;-76
2022/02/27 09:37:35;;;;;;;8.50;6.97;;;;;;;3.41;73.72;103199.13;1665754;85;20901;-76
2022/02/27 09:40:03;;;;;;;9.28;6.75;;;;;;;3.42;73.80;103201.29;1672741;85;21036;-75
2022/02/27 09:42:32;;;;;;;10.05;7.83;;;;;;;3.45;73.82;103202.73;1671171;84;20988;-75
2022/02/27 09:44:59;;;;;;;9.53;8.00;;;;;;;3.47;73.77;103203.30;1673906;84;21295;-75
2022/02/27 09:47:26;;;;;;;10.82;7.97;;;;;;;3.47;73.71;103200.75;1669398;84;21556;-75
2022/02/27 09:49:53;;;;;;;10.95;8.28;;;;;;;3.48;73.70;103202.91;1664626;85;21037;-75
2022/02/27 09:52:22;;;;;;;11.05;7.92;;;;;;;3.50;73.70;103204.75;1671527;84;21471;-75
2022/02/27 09:54:48;;;;;;;13.22;8.65;;;;;;;3.50;73.61;103202.19;1664547;85;21560;-75
2022/02/27 09:57:20;;;;;;;11.68;8.70;;;;;;;3.54;73.75;103202.84;1665301;84;22006;-76
2022/02/27 09:59:47;;;;;;;9.43;7.80;;;;;;;3.62;73.75;103199.02;1664794;84;21068;-76
2022/02/27 10:02:15;;;;;;;11.22;8.43;;;;;;;3.76;73.86;103193.73;1669677;85;21520;-76
2022/02/27 10:04:43;;;;;;;11.40;8.23;;;;;;;3.91;73.84;103196.70;1662409;85;21412;-76
2022/02/27 10:07:16;;;;;;;16.40;7.95;;;;;;;3.97;73.60;103200.86;1649974;84;21010;-76
2022/02/27 10:09:45;;;;;;;16.42;8.48;;;;;;;3.91;73.48;103209.50;1660721;85;20932;-76
2022/02/27 10:12:21;;;;;;;10.03;7.58;;;;;;;3.83;73.36;103201.81;1668382;85;20907;-76
2022/02/27 10:15:10;;;;;;;12.10;7.37;;;;;;;3.78;73.37;103204.92;1665488;84;20915;-76
2022/02/27 10:17:40;;;;;;;12.23;7.90;;;;;;;3.77;73.42;103193.81;1670302;85;20862;-76
2022/02/27 10:20:11;;;;;;;11.43;7.17;;;;;;;3.80;73.47;103185.02;1665182;84;21944;-76
2022/02/27 10:22:41;;;;;;;12.53;8.53;;;;;;;3.82;73.48;103187.25;1661639;84;20969;-76
2022/02/27 10:25:21;;;;;;;12.75;7.62;;;;;;;3.86;73.37;103189.17;1654517;85;20910;-75
2022/02/27 10:28:03;;;;;;;14.45;6.67;;;;;;;3.87;73.34;103184.94;1667921;85;20919;-76
2022/02/27 10:30:37;;;;;;;10.93;7.08;;;;;;;3.87;73.31;103178.54;1655179;84;20941;-75
2022/02/27 10:33:11;;;;;;;12.50;6.47;;;;;;;3.89;73.25;103175.66;1660812;85;20922;-75
2022/02/27 10:35:50;;;;;;;13.62;6.85;;;;;;;3.95;73.31;103169.58;1668079;85;20954;-75
2022/02/27 10:38:44;;;;;;;12.82;8.60;;;;;;;3.99;73.26;103165.98;1671857;85;21449;-75
2022/02/27 10:41:14;;;;;;;13.48;6.28;;;;;;;4.04;73.21;103167.91;1667771;85;20914;-75
2022/02/27 10:43:42;;;;;;;13.03;7.17;;;;;;;4.12;73.24;103167.50;1664399;85;21798;-75
2022/02/27 10:46:11;;;;;;;10.60;6.50;;;;;;;4.19;73.19;103169.53;1670335;85;21378;-76
2022/02/27 10:48:37;;;;;;;10.23;6.05;;;;;;;4.24;73.14;103168.09;1668059;84;21435;-76
2022/02/27 10:51:08;;;;;;;9.28;6.30;;;;;;;4.31;73.04;103157.75;1673662;85;20856;-76
2022/02/27 10:53:41;;;;;;;11.33;6.90;;;;;;;4.38;72.94;103163.66;1666786;84;21439;-75
2022/02/27 10:56:13;;;;;;;10.82;6.17;;;;;;;4.41;73.03;103161.66;1676669;85;21504;-75
2022/02/27 10:58:48;;;;;;;11.22;6.65;;;;;;;4.46;73.04;103152.52;1678287;84;21409;-75
2022/02/27 11:01:24;;;;;;;11.78;6.10;;;;;;;4.50;72.98;103154.03;1668396;85;20905;-75
2022/02/27 11:03:55;;;;;;;12.93;6.87;;;;;;;4.54;72.90;103155.94;1670528;85;21004;-75
2022/02/27 11:06:23;;;;;;;8.78;5.35;;;;;;;4.57;72.85;103152.65;1674211;85;21156;-75
2022/02/27 11:08:51;;;;;;;8.93;5.28;;;;;;;4.62;72.87;103153.75;1674050;85;32770;-75
2022/02/27 11:11:18;;;;;;;6.40;4.80;;;;;;;4.67;72.72;103150.14;1675599;85;21355;-75
2022/02/27 11:13:45;;;;;;;10.98;5.55;;;;;;;4.71;72.64;103148.17;1673552;84;20957;-75
2022/02/27 11:16:14;;;;;;;7.33;5.50;;;;;;;4.73;72.57;103141.03;1668940;85;21054;-75
2022/02/27 11:18:44;;;;;;;9.08;4.58;;;;;;;4.76;72.53;103135.17;1667635;85;21508;-76
2022/02/27 11:21:11;;;;;;;;;;;;;;;4.79;72.44;103136.60;1671992;85;21557;-76
2022/02/27 11:23:39;;;;;;;5.80;4.15;;;;;;;4.80;72.02;103130.27;1666302;85;20627;-76
2022/02/27 11:26:06;;;;;;;5.08;3.52;;;;;;;4.84;72.35;103132.58;1671527;85;21434;-76
2022/02/27 11:28:33;;;;;;;9.38;4.65;;;;;;;4.90;72.35;103128.63;1672224;85;21577;-76